TimeCDT,TemperatureF,Dew PointF,Humidity,Sea Level PressureIn,VisibilityMPH,Wind Direction,Wind SpeedMPH,Gust SpeedMPH,PrecipitationIn,Events,Conditions,WindDirDegrees,DateUTC
12:53 AM,66.0,57.9,75,29.90,10.0,Calm,Calm,-,N/A,,Clear,0,2013-06-09 05:53:00
1:53 AM,68.0,57.0,68,29.88,10.0,SSE,3.5,-,N/A,,Clear,150,2013-06-09 06:53:00
2:53 AM,68.0,57.9,70,29.87,10.0,SE,4.6,-,N/A,,Clear,140,2013-06-09 07:53:00
3:53 AM,69.1,59.0,70,29.83,10.0,Variable,4.6,-,N/A,,Clear,0,2013-06-09 08:53:00
4:53 AM,70.0,61.0,73,29.85,10.0,SSW,6.9,-,0.00,,Mostly Cloudy,210,2013-06-09 09:53:00
5:53 AM,68.0,61.0,78,29.86,10.0,Variable,3.5,-,N/A,,Mostly Cloudy,0,2013-06-09 10:53:00
6:53 AM,68.0,63.0,84,29.85,10.0,South,8.1,-,N/A,,Scattered Clouds,170,2013-06-09 11:53:00
7:53 AM,69.1,63.0,81,29.83,10.0,South,10.4,-,N/A,,Partly Cloudy,180,2013-06-09 12:53:00
8:53 AM,71.1,64.0,78,29.86,10.0,SSW,10.4,-,N/A,,Clear,200,2013-06-09 13:53:00
9:53 AM,72.0,64.0,76,29.87,10.0,SSW,6.9,-,N/A,,Partly Cloudy,210,2013-06-09 14:53:00
10:53 AM,75.0,63.0,66,29.87,10.0,Variable,6.9,-,N/A,,Scattered Clouds,0,2013-06-09 15:53:00
11:53 AM,78.1,64.0,62,29.88,10.0,West,8.1,-,N/A,,Mostly Cloudy,270,2013-06-09 16:53:00
12:53 PM,78.1,64.0,62,29.89,10.0,West,9.2,17.3,N/A,,Scattered Clouds,280,2013-06-09 17:53:00
1:53 PM,80.1,62.1,54,29.86,10.0,NW,10.4,17.3,N/A,,Partly Cloudy,310,2013-06-09 18:53:00
2:53 PM,81.0,61.0,50,29.86,10.0,NW,13.8,-,N/A,,Partly Cloudy,320,2013-06-09 19:53:00
3:53 PM,81.0,59.0,47,29.85,10.0,NNW,8.1,-,N/A,,Clear,340,2013-06-09 20:53:00
4:53 PM,80.1,57.0,45,29.84,10.0,Variable,4.6,-,N/A,,Clear,0,2013-06-09 21:53:00
5:53 PM,80.1,57.0,45,29.84,10.0,West,3.5,-,N/A,,Clear,280,2013-06-09 22:53:00
6:01 PM,80.6,57.2,45,29.88,10.0,NW,6.9,-,N/A,,Partly Cloudy,320,2013-06-09 23:01:00
6:53 PM,80.1,57.0,45,29.85,10.0,West,5.8,-,N/A,,Clear,280,2013-06-09 23:53:00
7:49 PM,77.0,57.2,50,29.89,10.0,West,3.5,-,N/A,,Partly Cloudy,260,2013-06-10 00:49:00
7:53 PM,77.0,57.0,50,29.85,10.0,West,3.5,-,N/A,,Clear,260,2013-06-10 00:53:00
8:53 PM,70.0,60.1,71,29.84,10.0,Calm,Calm,-,N/A,,Clear,0,2013-06-10 01:53:00
9:53 PM,66.0,60.1,81,29.86,10.0,SSW,5.8,-,N/A,,Clear,200,2013-06-10 02:53:00
10:53 PM,64.0,60.1,87,29.88,10.0,South,6.9,-,N/A,,Clear,190,2013-06-10 03:53:00
11:53 PM,62.1,59.0,90,29.88,10.0,South,4.6,-,N/A,,Clear,190,2013-06-10 04:53:00